sensor_id;sensor_type;location;lat;lon;timestamp;P1;durP1;ratioP1;P2;durP2;ratioP2
24034;SDS011;12242;50.952;4.678;2023-02-12T00:01:37;32.63;;;15.15;;
24034;SDS011;12242;50.952;4.678;2023-02-12T00:04:05;34.08;;;14.75;;
24034;SDS011;12242;50.952;4.678;2023-02-12T00:06:32;26.95;;;12.20;;
24034;SDS011;12242;50.952;4.678;2023-02-12T00:09:00;29.98;;;12.82;;
24034;SDS011;12242;50.952;4.678;2023-02-12T00:11:28;29.90;;;13.50;;
24034;SDS011;12242;50.952;4.678;2023-02-12T00:13:58;30.98;;;13.55;;
24034;SDS011;12242;50.952;4.678;2023-02-12T00:16:29;33.10;;;14.65;;
24034;SDS011;12242;50.952;4.678;2023-02-12T00:18:59;31.77;;;14.43;;
24034;SDS011;12242;50.952;4.678;2023-02-12T00:21:26;38.78;;;14.98;;
24034;SDS011;12242;50.952;4.678;2023-02-12T00:23:54;35.75;;;14.13;;
24034;SDS011;12242;50.952;4.678;2023-02-12T00:26:22;44.70;;;17.77;;
24034;SDS011;12242;50.952;4.678;2023-02-12T00:28:52;36.92;;;17.40;;
24034;SDS011;12242;50.952;4.678;2023-02-12T00:31:24;49.95;;;20.77;;
24034;SDS011;12242;50.952;4.678;2023-02-12T00:33:54;46.85;;;19.48;;
24034;SDS011;12242;50.952;4.678;2023-02-12T00:36:23;38.45;;;17.52;;
24034;SDS011;12242;50.952;4.678;2023-02-12T00:38:54;41.45;;;16.45;;
24034;SDS011;12242;50.952;4.678;2023-02-12T00:41:22;35.00;;;16.05;;
24034;SDS011;12242;50.952;4.678;2023-02-12T00:43:50;40.40;;;15.85;;
24034;SDS011;12242;50.952;4.678;2023-02-12T00:46:18;36.90;;;16.15;;
24034;SDS011;12242;50.952;4.678;2023-02-12T00:48:45;34.22;;;15.85;;
24034;SDS011;12242;50.952;4.678;2023-02-12T00:51:12;39.83;;;15.45;;
24034;SDS011;12242;50.952;4.678;2023-02-12T00:53:41;38.63;;;15.90;;
24034;SDS011;12242;50.952;4.678;2023-02-12T00:56:08;34.55;;;15.32;;
24034;SDS011;12242;50.952;4.678;2023-02-12T00:58:36;38.08;;;17.38;;
24034;SDS011;12242;50.952;4.678;2023-02-12T01:01:03;40.30;;;16.20;;
24034;SDS011;12242;50.952;4.678;2023-02-12T01:03:30;40.35;;;16.23;;
24034;SDS011;12242;50.952;4.678;2023-02-12T01:05:58;34.30;;;15.23;;
24034;SDS011;12242;50.952;4.678;2023-02-12T01:08:28;41.90;;;16.40;;
24034;SDS011;12242;50.952;4.678;2023-02-12T01:11:00;34.95;;;15.55;;
24034;SDS011;12242;50.952;4.678;2023-02-12T01:13:29;33.67;;;14.38;;
24034;SDS011;12242;50.952;4.678;2023-02-12T01:16:00;35.17;;;15.57;;
24034;SDS011;12242;50.952;4.678;2023-02-12T01:18:30;40.72;;;16.40;;
24034;SDS011;12242;50.952;4.678;2023-02-12T01:20:57;33.97;;;14.90;;
24034;SDS011;12242;50.952;4.678;2023-02-12T01:23:27;38.35;;;15.73;;
24034;SDS011;12242;50.952;4.678;2023-02-12T01:25:54;34.17;;;15.43;;
24034;SDS011;12242;50.952;4.678;2023-02-12T01:28:26;39.75;;;15.52;;
24034;SDS011;12242;50.952;4.678;2023-02-12T01:30:54;35.67;;;14.80;;
24034;SDS011;12242;50.952;4.678;2023-02-12T01:33:21;34.70;;;14.75;;
24034;SDS011;12242;50.952;4.678;2023-02-12T01:35:48;33.42;;;15.25;;
24034;SDS011;12242;50.952;4.678;2023-02-12T01:38:18;40.60;;;16.63;;
24034;SDS011;12242;50.952;4.678;2023-02-12T01:40:45;36.20;;;15.13;;
24034;SDS011;12242;50.952;4.678;2023-02-12T01:43:14;36.15;;;15.10;;
24034;SDS011;12242;50.952;4.678;2023-02-12T01:48:09;34.38;;;15.15;;
24034;SDS011;12242;50.952;4.678;2023-02-12T01:50:40;32.88;;;14.85;;
24034;SDS011;12242;50.952;4.678;2023-02-12T01:53:09;31.20;;;14.10;;
24034;SDS011;12242;50.952;4.678;2023-02-12T01:55:46;31.95;;;13.63;;
24034;SDS011;12242;50.952;4.678;2023-02-12T01:58:15;33.30;;;14.93;;
24034;SDS011;12242;50.952;4.678;2023-02-12T02:00:43;33.20;;;15.60;;
24034;SDS011;12242;50.952;4.678;2023-02-12T02:03:13;35.33;;;15.65;;
24034;SDS011;12242;50.952;4.678;2023-02-12T02:05:42;37.22;;;16.35;;
24034;SDS011;12242;50.952;4.678;2023-02-12T02:08:24;36.80;;;15.38;;
24034;SDS011;12242;50.952;4.678;2023-02-12T02:10:54;37.10;;;15.13;;
24034;SDS011;12242;50.952;4.678;2023-02-12T02:13:21;37.30;;;15.65;;
24034;SDS011;12242;50.952;4.678;2023-02-12T02:16:13;37.22;;;14.65;;
24034;SDS011;12242;50.952;4.678;2023-02-12T02:18:55;32.70;;;14.52;;
24034;SDS011;12242;50.952;4.678;2023-02-12T02:24:20;39.58;;;14.93;;
24034;SDS011;12242;50.952;4.678;2023-02-12T02:32:56;38.53;;;16.70;;
24034;SDS011;12242;50.952;4.678;2023-02-12T02:35:31;38.03;;;14.57;;
24034;SDS011;12242;50.952;4.678;2023-02-12T02:38:20;35.25;;;14.80;;
24034;SDS011;12242;50.952;4.678;2023-02-12T02:41:19;33.10;;;15.18;;
24034;SDS011;12242;50.952;4.678;2023-02-12T02:43:52;31.60;;;14.88;;
24034;SDS011;12242;50.952;4.678;2023-02-12T02:49:12;33.08;;;14.77;;
24034;SDS011;12242;50.952;4.678;2023-02-12T02:51:52;35.78;;;15.02;;
24034;SDS011;12242;50.952;4.678;2023-02-12T02:54:29;36.00;;;15.73;;
24034;SDS011;12242;50.952;4.678;2023-02-12T02:57:44;33.30;;;13.57;;
24034;SDS011;12242;50.952;4.678;2023-02-12T02:59:57;31.73;;;13.48;;
24034;SDS011;12242;50.952;4.678;2023-02-12T03:02:32;32.13;;;14.27;;
24034;SDS011;12242;50.952;4.678;2023-02-12T03:05:08;34.65;;;13.48;;
24034;SDS011;12242;50.952;4.678;2023-02-12T03:07:43;31.48;;;14.98;;
24034;SDS011;12242;50.952;4.678;2023-02-12T03:10:23;31.67;;;14.07;;
24034;SDS011;12242;50.952;4.678;2023-02-12T03:15:46;36.20;;;13.95;;
24034;SDS011;12242;50.952;4.678;2023-02-12T03:18:35;34.13;;;14.13;;
24034;SDS011;12242;50.952;4.678;2023-02-12T03:21:16;31.10;;;13.60;;
24034;SDS011;12242;50.952;4.678;2023-02-12T03:29:54;34.83;;;13.77;;
24034;SDS011;12242;50.952;4.678;2023-02-12T03:35:11;31.48;;;14.23;;
24034;SDS011;12242;50.952;4.678;2023-02-12T03:37:46;31.38;;;13.80;;
24034;SDS011;12242;50.952;4.678;2023-02-12T03:40:33;34.30;;;13.90;;
24034;SDS011;12242;50.952;4.678;2023-02-12T03:43:07;33.53;;;13.40;;
24034;SDS011;12242;50.952;4.678;2023-02-12T03:45:51;26.75;;;12.27;;
24034;SDS011;12242;50.952;4.678;2023-02-12T03:48:58;30.07;;;12.70;;
24034;SDS011;12242;50.952;4.678;2023-02-12T03:51:36;31.20;;;12.77;;
24034;SDS011;12242;50.952;4.678;2023-02-12T03:54:09;34.63;;;13.23;;
24034;SDS011;12242;50.952;4.678;2023-02-12T03:56:48;30.92;;;14.23;;
24034;SDS011;12242;50.952;4.678;2023-02-12T03:59:27;31.63;;;13.05;;
24034;SDS011;12242;50.952;4.678;2023-02-12T04:01:56;34.67;;;14.07;;
24034;SDS011;12242;50.952;4.678;2023-02-12T04:04:25;33.10;;;14.10;;
24034;SDS011;12242;50.952;4.678;2023-02-12T04:06:53;31.00;;;13.35;;
24034;SDS011;12242;50.952;4.678;2023-02-12T04:09:21;29.73;;;12.88;;
24034;SDS011;12242;50.952;4.678;2023-02-12T04:37:31;32.35;;;14.13;;
24034;SDS011;12242;50.952;4.678;2023-02-12T04:40:08;37.20;;;14.07;;
24034;SDS011;12242;50.952;4.678;2023-02-12T04:42:43;32.17;;;13.45;;
24034;SDS011;12242;50.952;4.678;2023-02-12T04:45:21;29.38;;;13.15;;
24034;SDS011;12242;50.952;4.678;2023-02-12T04:47:53;30.20;;;12.73;;
24034;SDS011;12242;50.952;4.678;2023-02-12T04:50:20;30.48;;;13.50;;
24034;SDS011;12242;50.952;4.678;2023-02-12T04:52:48;27.33;;;12.82;;
24034;SDS011;12242;50.952;4.678;2023-02-12T04:55:16;30.92;;;13.75;;
24034;SDS011;12242;50.952;4.678;2023-02-12T04:57:46;29.73;;;12.70;;
24034;SDS011;12242;50.952;4.678;2023-02-12T05:00:13;27.60;;;12.52;;
24034;SDS011;12242;50.952;4.678;2023-02-12T05:02:43;28.52;;;12.45;;
24034;SDS011;12242;50.952;4.678;2023-02-12T05:05:11;32.70;;;13.18;;
24034;SDS011;12242;50.952;4.678;2023-02-12T05:07:40;30.10;;;12.88;;
24034;SDS011;12242;50.952;4.678;2023-02-12T05:10:08;30.52;;;13.13;;
24034;SDS011;12242;50.952;4.678;2023-02-12T05:12:35;28.83;;;11.75;;
24034;SDS011;12242;50.952;4.678;2023-02-12T05:15:05;26.52;;;11.93;;
24034;SDS011;12242;50.952;4.678;2023-02-12T05:17:33;27.38;;;12.30;;
24034;SDS011;12242;50.952;4.678;2023-02-12T05:20:04;25.83;;;12.15;;
24034;SDS011;12242;50.952;4.678;2023-02-12T05:22:32;31.77;;;12.70;;
24034;SDS011;12242;50.952;4.678;2023-02-12T05:25:04;29.13;;;12.02;;
24034;SDS011;12242;50.952;4.678;2023-02-12T05:27:34;26.70;;;11.70;;
24034;SDS011;12242;50.952;4.678;2023-02-12T05:30:01;27.42;;;11.25;;
24034;SDS011;12242;50.952;4.678;2023-02-12T05:32:31;29.58;;;11.73;;
24034;SDS011;12242;50.952;4.678;2023-02-12T05:35:00;27.35;;;12.35;;
24034;SDS011;12242;50.952;4.678;2023-02-12T05:37:27;24.20;;;11.95;;
24034;SDS011;12242;50.952;4.678;2023-02-12T05:39:57;26.98;;;11.80;;
24034;SDS011;12242;50.952;4.678;2023-02-12T05:42:27;27.15;;;12.02;;
24034;SDS011;12242;50.952;4.678;2023-02-12T05:44:57;30.55;;;12.10;;
24034;SDS011;12242;50.952;4.678;2023-02-12T05:47:26;27.52;;;11.18;;
24034;SDS011;12242;50.952;4.678;2023-02-12T05:49:54;31.67;;;11.65;;
24034;SDS011;12242;50.952;4.678;2023-02-12T05:52:21;31.88;;;12.40;;
24034;SDS011;12242;50.952;4.678;2023-02-12T05:54:48;27.00;;;12.15;;
24034;SDS011;12242;50.952;4.678;2023-02-12T05:57:18;34.10;;;13.75;;
24034;SDS011;12242;50.952;4.678;2023-02-12T05:59:47;28.08;;;11.75;;
24034;SDS011;12242;50.952;4.678;2023-02-12T06:02:17;28.13;;;12.40;;
24034;SDS011;12242;50.952;4.678;2023-02-12T06:04:44;30.05;;;12.75;;
24034;SDS011;12242;50.952;4.678;2023-02-12T06:07:14;34.53;;;12.57;;
24034;SDS011;12242;50.952;4.678;2023-02-12T06:09:41;25.52;;;11.43;;
24034;SDS011;12242;50.952;4.678;2023-02-12T06:12:08;26.55;;;11.63;;
24034;SDS011;12242;50.952;4.678;2023-02-12T06:14:36;28.27;;;12.00;;
24034;SDS011;12242;50.952;4.678;2023-02-12T06:17:03;30.23;;;12.77;;
24034;SDS011;12242;50.952;4.678;2023-02-12T06:19:30;27.10;;;12.05;;
24034;SDS011;12242;50.952;4.678;2023-02-12T06:22:00;29.23;;;12.32;;
24034;SDS011;12242;50.952;4.678;2023-02-12T06:24:29;28.95;;;11.10;;
24034;SDS011;12242;50.952;4.678;2023-02-12T06:26:59;30.20;;;12.07;;
24034;SDS011;12242;50.952;4.678;2023-02-12T06:29:31;29.98;;;12.23;;
24034;SDS011;12242;50.952;4.678;2023-02-12T06:31:59;28.10;;;12.43;;
24034;SDS011;12242;50.952;4.678;2023-02-12T06:34:26;29.85;;;12.60;;
24034;SDS011;12242;50.952;4.678;2023-02-12T06:36:53;30.75;;;12.80;;
24034;SDS011;12242;50.952;4.678;2023-02-12T06:39:21;32.47;;;12.93;;
24034;SDS011;12242;50.952;4.678;2023-02-12T06:41:48;24.88;;;12.27;;
24034;SDS011;12242;50.952;4.678;2023-02-12T06:44:16;26.20;;;11.32;;
24034;SDS011;12242;50.952;4.678;2023-02-12T06:46:45;28.23;;;11.23;;
24034;SDS011;12242;50.952;4.678;2023-02-12T06:49:13;27.50;;;12.90;;
24034;SDS011;12242;50.952;4.678;2023-02-12T06:51:43;25.83;;;12.00;;
24034;SDS011;12242;50.952;4.678;2023-02-12T06:54:14;34.30;;;12.15;;
24034;SDS011;12242;50.952;4.678;2023-02-12T06:56:45;29.27;;;12.80;;
24034;SDS011;12242;50.952;4.678;2023-02-12T06:59:13;25.67;;;12.25;;
24034;SDS011;12242;50.952;4.678;2023-02-12T07:01:42;27.08;;;11.25;;
24034;SDS011;12242;50.952;4.678;2023-02-12T07:04:12;28.23;;;11.88;;
24034;SDS011;12242;50.952;4.678;2023-02-12T07:06:42;26.80;;;12.20;;
24034;SDS011;12242;50.952;4.678;2023-02-12T07:09:09;26.80;;;11.82;;
24034;SDS011;12242;50.952;4.678;2023-02-12T07:11:39;28.08;;;11.23;;
24034;SDS011;12242;50.952;4.678;2023-02-12T07:14:06;27.65;;;11.80;;
24034;SDS011;12242;50.952;4.678;2023-02-12T07:16:39;25.10;;;10.57;;
24034;SDS011;12242;50.952;4.678;2023-02-12T07:19:06;26.42;;;11.43;;
24034;SDS011;12242;50.952;4.678;2023-02-12T07:21:33;25.77;;;11.23;;
24034;SDS011;12242;50.952;4.678;2023-02-12T07:24:01;28.73;;;11.77;;
24034;SDS011;12242;50.952;4.678;2023-02-12T07:26:28;29.38;;;12.65;;
24034;SDS011;12242;50.952;4.678;2023-02-12T07:28:55;31.63;;;12.88;;
24034;SDS011;12242;50.952;4.678;2023-02-12T07:31:26;25.67;;;10.82;;
24034;SDS011;12242;50.952;4.678;2023-02-12T07:33:57;29.63;;;12.63;;
24034;SDS011;12242;50.952;4.678;2023-02-12T07:36:29;22.70;;;11.20;;
24034;SDS011;12242;50.952;4.678;2023-02-12T07:39:00;26.92;;;11.02;;
24034;SDS011;12242;50.952;4.678;2023-02-12T07:41:28;25.10;;;11.32;;
24034;SDS011;12242;50.952;4.678;2023-02-12T07:44:04;20.70;;;10.27;;
24034;SDS011;12242;50.952;4.678;2023-02-12T07:46:39;24.98;;;12.15;;
24034;SDS011;12242;50.952;4.678;2023-02-12T07:49:07;23.10;;;10.75;;
24034;SDS011;12242;50.952;4.678;2023-02-12T07:51:38;25.77;;;10.95;;
24034;SDS011;12242;50.952;4.678;2023-02-12T07:54:08;26.27;;;11.13;;
24034;SDS011;12242;50.952;4.678;2023-02-12T07:56:37;29.05;;;11.73;;
24034;SDS011;12242;50.952;4.678;2023-02-12T07:59:06;26.35;;;11.88;;
24034;SDS011;12242;50.952;4.678;2023-02-12T08:01:39;24.95;;;11.00;;
24034;SDS011;12242;50.952;4.678;2023-02-12T08:04:17;27.50;;;11.43;;
24034;SDS011;12242;50.952;4.678;2023-02-12T08:06:50;24.80;;;11.15;;
24034;SDS011;12242;50.952;4.678;2023-02-12T08:09:21;24.80;;;11.18;;
24034;SDS011;12242;50.952;4.678;2023-02-12T08:11:50;28.65;;;10.63;;
24034;SDS011;12242;50.952;4.678;2023-02-12T08:14:20;28.15;;;11.13;;
24034;SDS011;12242;50.952;4.678;2023-02-12T08:16:53;26.65;;;11.55;;
24034;SDS011;12242;50.952;4.678;2023-02-12T08:19:20;31.85;;;11.18;;
24034;SDS011;12242;50.952;4.678;2023-02-12T08:21:55;27.27;;;10.77;;
24034;SDS011;12242;50.952;4.678;2023-02-12T08:24:23;26.13;;;11.48;;
24034;SDS011;12242;50.952;4.678;2023-02-12T08:26:50;22.42;;;10.68;;
24034;SDS011;12242;50.952;4.678;2023-02-12T08:29:21;24.50;;;10.82;;
24034;SDS011;12242;50.952;4.678;2023-02-12T08:31:53;24.80;;;11.13;;
24034;SDS011;12242;50.952;4.678;2023-02-12T08:34:26;25.52;;;10.13;;
24034;SDS011;12242;50.952;4.678;2023-02-12T08:36:55;25.55;;;11.60;;
24034;SDS011;12242;50.952;4.678;2023-02-12T08:39:26;29.27;;;12.55;;
24034;SDS011;12242;50.952;4.678;2023-02-12T08:41:55;25.75;;;11.45;;
24034;SDS011;12242;50.952;4.678;2023-02-12T08:44:25;27.08;;;12.15;;
24034;SDS011;12242;50.952;4.678;2023-02-12T08:46:53;25.10;;;11.23;;
24034;SDS011;12242;50.952;4.678;2023-02-12T08:49:27;21.45;;;10.35;;
24034;SDS011;12242;50.952;4.678;2023-02-12T08:51:56;25.25;;;11.02;;
24034;SDS011;12242;50.952;4.678;2023-02-12T08:54:26;25.13;;;10.88;;
24034;SDS011;12242;50.952;4.678;2023-02-12T08:56:58;24.42;;;10.70;;
24034;SDS011;12242;50.952;4.678;2023-02-12T08:59:29;25.50;;;10.90;;
24034;SDS011;12242;50.952;4.678;2023-02-12T09:01:56;21.23;;;9.82;;
24034;SDS011;12242;50.952;4.678;2023-02-12T09:04:25;23.85;;;10.50;;
24034;SDS011;12242;50.952;4.678;2023-02-12T09:06:53;27.65;;;11.90;;
24034;SDS011;12242;50.952;4.678;2023-02-12T09:09:21;22.95;;;10.60;;
24034;SDS011;12242;50.952;4.678;2023-02-12T09:11:48;22.58;;;10.32;;
24034;SDS011;12242;50.952;4.678;2023-02-12T09:14:18;28.73;;;11.65;;
24034;SDS011;12242;50.952;4.678;2023-02-12T09:16:52;26.33;;;10.85;;
24034;SDS011;12242;50.952;4.678;2023-02-12T09:19:20;29.02;;;12.00;;
24034;SDS011;12242;50.952;4.678;2023-02-12T09:21:51;26.80;;;11.73;;
24034;SDS011;12242;50.952;4.678;2023-02-12T09:24:22;24.35;;;11.13;;
24034;SDS011;12242;50.952;4.678;2023-02-12T09:26:53;28.70;;;12.30;;
24034;SDS011;12242;50.952;4.678;2023-02-12T09:29:23;27.63;;;12.35;;
24034;SDS011;12242;50.952;4.678;2023-02-12T09:31:50;25.30;;;11.93;;
24034;SDS011;12242;50.952;4.678;2023-02-12T09:34:19;26.83;;;11.82;;
24034;SDS011;12242;50.952;4.678;2023-02-12T09:36:49;28.25;;;11.95;;
24034;SDS011;12242;50.952;4.678;2023-02-12T09:39:16;29.00;;;12.23;;
24034;SDS011;12242;50.952;4.678;2023-02-12T09:41:57;27.05;;;11.95;;
24034;SDS011;12242;50.952;4.678;2023-02-12T09:47:14;30.50;;;13.45;;
24034;SDS011;12242;50.952;4.678;2023-02-12T09:52:39;30.98;;;13.75;;
24034;SDS011;12242;50.952;4.678;2023-02-12T09:55:10;29.33;;;12.70;;
24034;SDS011;12242;50.952;4.678;2023-02-12T09:57:45;28.15;;;12.15;;
24034;SDS011;12242;50.952;4.678;2023-02-12T10:02:45;28.08;;;12.32;;
24034;SDS011;12242;50.952;4.678;2023-02-12T10:05:19;29.20;;;12.48;;
24034;SDS011;12242;50.952;4.678;2023-02-12T10:10:47;29.50;;;12.07;;
24034;SDS011;12242;50.952;4.678;2023-02-12T10:19:43;32.97;;;12.68;;
24034;SDS011;12242;50.952;4.678;2023-02-12T10:31:06;28.85;;;12.23;;
24034;SDS011;12242;50.952;4.678;2023-02-12T10:33:56;27.70;;;12.50;;
24034;SDS011;12242;50.952;4.678;2023-02-12T10:36:39;31.20;;;12.52;;
24034;SDS011;12242;50.952;4.678;2023-02-12T10:39:18;26.65;;;11.82;;
24034;SDS011;12242;50.952;4.678;2023-02-12T10:44:43;26.85;;;11.95;;
24034;SDS011;12242;50.952;4.678;2023-02-12T10:47:14;26.63;;;10.75;;
24034;SDS011;12242;50.952;4.678;2023-02-12T10:49:45;23.20;;;10.73;;
24034;SDS011;12242;50.952;4.678;2023-02-12T10:52:23;22.20;;;10.02;;
24034;SDS011;12242;50.952;4.678;2023-02-12T10:54:52;23.75;;;10.25;;
24034;SDS011;12242;50.952;4.678;2023-02-12T10:57:21;26.75;;;10.10;;
24034;SDS011;12242;50.952;4.678;2023-02-12T10:59:50;25.92;;;10.35;;
24034;SDS011;12242;50.952;4.678;2023-02-12T11:02:23;24.15;;;9.05;;
24034;SDS011;12242;50.952;4.678;2023-02-12T11:04:56;24.05;;;10.43;;
24034;SDS011;12242;50.952;4.678;2023-02-12T11:07:48;24.15;;;9.90;;
24034;SDS011;12242;50.952;4.678;2023-02-12T11:10:20;21.80;;;9.75;;
24034;SDS011;12242;50.952;4.678;2023-02-12T11:12:58;20.90;;;8.85;;
24034;SDS011;12242;50.952;4.678;2023-02-12T11:15:35;19.65;;;8.90;;
24034;SDS011;12242;50.952;4.678;2023-02-12T11:18:19;23.77;;;8.98;;
24034;SDS011;12242;50.952;4.678;2023-02-12T11:20:57;23.08;;;10.10;;
24034;SDS011;12242;50.952;4.678;2023-02-12T11:31:43;24.35;;;10.40;;
24034;SDS011;12242;50.952;4.678;2023-02-12T11:34:34;24.58;;;9.80;;
24034;SDS011;12242;50.952;4.678;2023-02-12T11:37:06;20.92;;;9.95;;
24034;SDS011;12242;50.952;4.678;2023-02-12T11:39:47;20.80;;;9.68;;
24034;SDS011;12242;50.952;4.678;2023-02-12T11:42:17;24.23;;;10.02;;
24034;SDS011;12242;50.952;4.678;2023-02-12T11:44:54;23.92;;;10.32;;
24034;SDS011;12242;50.952;4.678;2023-02-12T11:47:26;26.23;;;11.05;;
24034;SDS011;12242;50.952;4.678;2023-02-12T11:52:44;21.05;;;9.77;;
24034;SDS011;12242;50.952;4.678;2023-02-12T11:55:29;17.85;;;8.30;;
24034;SDS011;12242;50.952;4.678;2023-02-12T11:58:14;19.98;;;9.02;;
24034;SDS011;12242;50.952;4.678;2023-02-12T12:06:00;20.45;;;8.57;;
24034;SDS011;12242;50.952;4.678;2023-02-12T12:08:47;22.27;;;8.98;;
24034;SDS011;12242;50.952;4.678;2023-02-12T12:11:19;20.10;;;9.07;;
24034;SDS011;12242;50.952;4.678;2023-02-12T12:19:46;19.88;;;8.77;;
24034;SDS011;12242;50.952;4.678;2023-02-12T12:23:05;17.10;;;7.77;;
24034;SDS011;12242;50.952;4.678;2023-02-12T12:25:16;19.42;;;8.15;;
24034;SDS011;12242;50.952;4.678;2023-02-12T12:28:00;20.05;;;8.98;;
24034;SDS011;12242;50.952;4.678;2023-02-12T12:33:31;18.95;;;8.95;;
24034;SDS011;12242;50.952;4.678;2023-02-12T13:09:28;20.42;;;9.27;;
24034;SDS011;12242;50.952;4.678;2023-02-12T13:17:57;28.83;;;9.52;;
24034;SDS011;12242;50.952;4.678;2023-02-12T13:20:40;20.05;;;9.35;;
24034;SDS011;12242;50.952;4.678;2023-02-12T13:28:51;23.75;;;9.15;;
24034;SDS011;12242;50.952;4.678;2023-02-12T13:31:27;19.63;;;9.02;;
24034;SDS011;12242;50.952;4.678;2023-02-12T13:34:01;22.60;;;10.25;;
24034;SDS011;12242;50.952;4.678;2023-02-12T13:36:35;22.77;;;9.02;;
24034;SDS011;12242;50.952;4.678;2023-02-12T13:44:40;27.95;;;10.10;;
24034;SDS011;12242;50.952;4.678;2023-02-12T13:47:33;22.35;;;10.18;;
24034;SDS011;12242;50.952;4.678;2023-02-12T13:50:22;28.52;;;10.55;;
24034;SDS011;12242;50.952;4.678;2023-02-12T14:01:12;25.63;;;10.63;;
24034;SDS011;12242;50.952;4.678;2023-02-12T14:04:20;24.10;;;10.40;;
24034;SDS011;12242;50.952;4.678;2023-02-12T14:07:08;23.55;;;9.90;;
24034;SDS011;12242;50.952;4.678;2023-02-12T14:09:42;23.13;;;10.23;;
24034;SDS011;12242;50.952;4.678;2023-02-12T14:12:12;22.90;;;10.48;;
24034;SDS011;12242;50.952;4.678;2023-02-12T14:15:03;29.13;;;12.18;;
24034;SDS011;12242;50.952;4.678;2023-02-12T14:22:58;25.40;;;11.63;;
24034;SDS011;12242;50.952;4.678;2023-02-12T14:25:55;33.03;;;11.77;;
24034;SDS011;12242;50.952;4.678;2023-02-12T14:28:28;27.98;;;11.35;;
24034;SDS011;12242;50.952;4.678;2023-02-12T14:31:18;25.70;;;11.75;;
24034;SDS011;12242;50.952;4.678;2023-02-12T14:34:38;22.08;;;10.32;;
24034;SDS011;12242;50.952;4.678;2023-02-12T14:36:43;25.33;;;11.05;;
24034;SDS011;12242;50.952;4.678;2023-02-12T14:41:48;26.52;;;11.63;;
24034;SDS011;12242;50.952;4.678;2023-02-12T14:46:56;26.25;;;11.07;;
24034;SDS011;12242;50.952;4.678;2023-02-12T14:49:25;25.98;;;10.55;;
24034;SDS011;12242;50.952;4.678;2023-02-12T14:52:03;26.20;;;10.63;;
24034;SDS011;12242;50.952;4.678;2023-02-12T14:57:33;29.45;;;11.40;;
24034;SDS011;12242;50.952;4.678;2023-02-12T15:03:18;28.90;;;11.70;;
24034;SDS011;12242;50.952;4.678;2023-02-12T15:05:55;26.58;;;11.43;;
24034;SDS011;12242;50.952;4.678;2023-02-12T15:13:48;28.60;;;12.38;;
24034;SDS011;12242;50.952;4.678;2023-02-12T15:16:44;27.52;;;11.85;;
24034;SDS011;12242;50.952;4.678;2023-02-12T15:20:18;26.75;;;11.55;;
24034;SDS011;12242;50.952;4.678;2023-02-12T15:22:34;32.00;;;12.90;;
24034;SDS011;12242;50.952;4.678;2023-02-12T15:25:49;24.88;;;11.75;;
24034;SDS011;12242;50.952;4.678;2023-02-12T15:28:02;30.38;;;12.68;;
24034;SDS011;12242;50.952;4.678;2023-02-12T15:30:39;30.85;;;12.40;;
24034;SDS011;12242;50.952;4.678;2023-02-12T15:33:16;27.75;;;12.27;;
24034;SDS011;12242;50.952;4.678;2023-02-12T15:35:50;30.42;;;12.35;;
24034;SDS011;12242;50.952;4.678;2023-02-12T15:38:25;28.15;;;11.88;;
24034;SDS011;12242;50.952;4.678;2023-02-12T15:40:59;27.35;;;11.55;;
24034;SDS011;12242;50.952;4.678;2023-02-12T15:43:30;24.05;;;11.90;;
24034;SDS011;12242;50.952;4.678;2023-02-12T15:46:01;34.90;;;12.82;;
24034;SDS011;12242;50.952;4.678;2023-02-12T15:48:32;32.60;;;13.02;;
24034;SDS011;12242;50.952;4.678;2023-02-12T15:53:43;25.75;;;11.75;;
24034;SDS011;12242;50.952;4.678;2023-02-12T15:56:14;28.38;;;11.77;;
24034;SDS011;12242;50.952;4.678;2023-02-12T16:01:33;31.55;;;12.32;;
24034;SDS011;12242;50.952;4.678;2023-02-12T16:04:01;29.85;;;12.00;;
24034;SDS011;12242;50.952;4.678;2023-02-12T16:06:34;34.95;;;13.02;;
24034;SDS011;12242;50.952;4.678;2023-02-12T16:09:08;29.63;;;13.35;;
24034;SDS011;12242;50.952;4.678;2023-02-12T16:11:47;32.03;;;14.07;;
24034;SDS011;12242;50.952;4.678;2023-02-12T16:14:25;29.63;;;12.68;;
24034;SDS011;12242;50.952;4.678;2023-02-12T16:16:57;29.27;;;12.43;;
24034;SDS011;12242;50.952;4.678;2023-02-12T16:19:29;30.52;;;13.05;;
24034;SDS011;12242;50.952;4.678;2023-02-12T16:22:08;30.42;;;12.07;;
24034;SDS011;12242;50.952;4.678;2023-02-12T16:24:48;27.15;;;12.27;;
24034;SDS011;12242;50.952;4.678;2023-02-12T16:27:21;27.25;;;11.90;;
24034;SDS011;12242;50.952;4.678;2023-02-12T16:30:06;27.83;;;12.32;;
24034;SDS011;12242;50.952;4.678;2023-02-12T16:32:53;27.08;;;11.90;;
24034;SDS011;12242;50.952;4.678;2023-02-12T16:35:26;33.97;;;12.63;;
24034;SDS011;12242;50.952;4.678;2023-02-12T16:38:00;32.92;;;12.77;;
24034;SDS011;12242;50.952;4.678;2023-02-12T16:46:43;28.10;;;12.27;;
24034;SDS011;12242;50.952;4.678;2023-02-12T16:49:17;31.50;;;12.52;;
24034;SDS011;12242;50.952;4.678;2023-02-12T16:51:46;31.42;;;12.70;;
24034;SDS011;12242;50.952;4.678;2023-02-12T16:54:30;31.55;;;12.35;;
24034;SDS011;12242;50.952;4.678;2023-02-12T16:57:01;26.52;;;11.90;;
24034;SDS011;12242;50.952;4.678;2023-02-12T16:59:30;29.60;;;12.10;;
24034;SDS011;12242;50.952;4.678;2023-02-12T17:01:59;29.83;;;12.45;;
24034;SDS011;12242;50.952;4.678;2023-02-12T17:04:29;29.30;;;12.98;;
24034;SDS011;12242;50.952;4.678;2023-02-12T17:06:57;29.27;;;12.77;;
24034;SDS011;12242;50.952;4.678;2023-02-12T17:09:24;32.35;;;13.13;;
24034;SDS011;12242;50.952;4.678;2023-02-12T17:11:55;29.15;;;11.32;;
24034;SDS011;12242;50.952;4.678;2023-02-12T17:14:23;33.17;;;13.50;;
24034;SDS011;12242;50.952;4.678;2023-02-12T17:16:50;31.67;;;12.82;;
24034;SDS011;12242;50.952;4.678;2023-02-12T17:19:17;30.83;;;12.95;;
24034;SDS011;12242;50.952;4.678;2023-02-12T17:21:49;26.08;;;13.05;;
24034;SDS011;12242;50.952;4.678;2023-02-12T17:24:21;31.25;;;13.23;;
24034;SDS011;12242;50.952;4.678;2023-02-12T17:26:56;29.52;;;12.93;;
24034;SDS011;12242;50.952;4.678;2023-02-12T17:29:23;31.52;;;13.02;;
24034;SDS011;12242;50.952;4.678;2023-02-12T17:31:51;32.80;;;13.15;;
24034;SDS011;12242;50.952;4.678;2023-02-12T17:34:23;35.88;;;14.23;;
24034;SDS011;12242;50.952;4.678;2023-02-12T17:36:51;28.25;;;13.05;;
24034;SDS011;12242;50.952;4.678;2023-02-12T17:39:19;31.42;;;13.32;;
24034;SDS011;12242;50.952;4.678;2023-02-12T17:41:47;34.08;;;14.38;;
24034;SDS011;12242;50.952;4.678;2023-02-12T17:44:17;38.45;;;14.95;;
24034;SDS011;12242;50.952;4.678;2023-02-12T17:46:47;33.22;;;13.05;;
24034;SDS011;12242;50.952;4.678;2023-02-12T17:49:16;32.80;;;14.70;;
24034;SDS011;12242;50.952;4.678;2023-02-12T17:51:46;33.75;;;14.00;;
24034;SDS011;12242;50.952;4.678;2023-02-12T17:54:13;36.45;;;14.68;;
24034;SDS011;12242;50.952;4.678;2023-02-12T17:56:43;34.97;;;14.85;;
24034;SDS011;12242;50.952;4.678;2023-02-12T17:59:10;30.90;;;14.48;;
24034;SDS011;12242;50.952;4.678;2023-02-12T18:01:37;36.72;;;15.07;;
24034;SDS011;12242;50.952;4.678;2023-02-12T18:04:06;34.80;;;14.32;;
24034;SDS011;12242;50.952;4.678;2023-02-12T18:06:33;34.47;;;15.32;;
24034;SDS011;12242;50.952;4.678;2023-02-12T18:09:03;36.55;;;15.25;;
24034;SDS011;12242;50.952;4.678;2023-02-12T18:11:31;33.58;;;14.77;;
24034;SDS011;12242;50.952;4.678;2023-02-12T18:14:00;30.13;;;13.00;;